createdAt,value
2024-03-30T00:00:46.482Z,721.2308
2024-03-30T00:01:48.080Z,723.6923
2024-03-30T00:02:49.556Z,722.0769
2024-03-30T00:03:51.043Z,723.5385
2024-03-30T00:04:52.626Z,723.4615
2024-03-30T00:05:54.134Z,720.9231
2024-03-30T00:06:55.652Z,721.8461
2024-03-30T00:07:57.290Z,718.3846
2024-03-30T00:08:58.711Z,720.9231
2024-03-30T00:10:00.226Z,722.0000
2024-03-30T00:11:01.762Z,720.3077
2024-03-30T00:12:03.320Z,719.3077
2024-03-30T00:13:04.826Z,720.8461
2024-03-30T00:14:06.366Z,720.0000
2024-03-30T00:15:07.960Z,717.0769
2024-03-30T00:16:09.411Z,712.5385
2024-03-30T00:17:10.971Z,715.4615
2024-03-30T00:18:12.482Z,717.1539
2024-03-30T00:19:13.993Z,721.3077
2024-03-30T00:20:15.548Z,726.3077
2024-03-30T00:21:17.068Z,726.0000
2024-03-30T00:22:18.570Z,721.0769
2024-03-30T00:23:20.107Z,713.3077
2024-03-30T00:24:21.714Z,717.2308
2024-03-30T00:25:23.160Z,720.0000
2024-03-30T00:26:24.696Z,721.1539
2024-03-30T00:27:26.244Z,718.7692
2024-03-30T00:28:27.767Z,718.5385
2024-03-30T00:29:29.361Z,719.0769
2024-03-30T00:30:30.819Z,720.5385
2024-03-30T00:31:32.364Z,720.5385
2024-03-30T00:32:33.890Z,719.0000
2024-03-30T00:33:35.411Z,716.3077
2024-03-30T00:34:36.943Z,717.1539
2024-03-30T00:35:38.467Z,715.7692
2024-03-30T00:36:40.081Z,720.1539
2024-03-30T00:37:41.524Z,716.0000
2024-03-30T00:38:43.052Z,717.6154
2024-03-30T00:39:44.588Z,717.6923
2024-03-30T00:40:46.764Z,716.8461
2024-03-30T00:41:47.688Z,717.4615
2024-03-30T00:43:00.373Z,716.9231
2024-03-30T00:43:50.726Z,718.0769
2024-03-30T00:44:52.277Z,717.3846
2024-03-30T00:45:53.754Z,717.9231
2024-03-30T00:46:55.302Z,721.3077
2024-03-30T00:47:56.862Z,721.2308
2024-03-30T00:48:58.365Z,717.7692
2024-03-30T00:49:59.894Z,718.0000
2024-03-30T00:51:01.426Z,717.1539
2024-03-30T00:52:02.933Z,717.0769
2024-03-30T00:53:04.471Z,718.5385
2024-03-30T00:54:06.001Z,718.0000
2024-03-30T00:55:07.609Z,716.5385
2024-03-30T00:56:09.079Z,715.0000
2024-03-30T00:57:10.587Z,716.1539
2024-03-30T00:58:12.129Z,721.7692
2024-03-30T00:59:13.732Z,720.3077
2024-03-30T01:00:15.182Z,718.1539
2024-03-30T01:01:16.713Z,714.8461
2024-03-30T01:02:18.242Z,716.4615
2024-03-30T01:03:19.859Z,716.3846
2024-03-30T01:04:21.317Z,718.0000
2024-03-30T01:05:22.833Z,717.0000
2024-03-30T01:06:24.439Z,716.2308
2024-03-30T01:07:25.981Z,714.0769
2024-03-30T01:08:27.439Z,715.5385
2024-03-30T01:09:28.950Z,714.0000
2024-03-30T01:10:30.531Z,714.2308
2024-03-30T01:11:32.027Z,713.0000
2024-03-30T01:12:33.575Z,714.8461
2024-03-30T01:13:35.099Z,714.0769
2024-03-30T01:14:36.614Z,714.1539
2024-03-30T01:15:38.230Z,715.6923
2024-03-30T01:16:42.233Z,719.3846
2024-03-30T01:17:41.224Z,714.5385
2024-03-30T01:18:42.732Z,716.5385
2024-03-30T01:19:44.377Z,716.4615
2024-03-30T01:20:45.804Z,714.7692
2024-03-30T01:21:47.316Z,714.1539
2024-03-30T01:22:48.834Z,716.0769
2024-03-30T01:23:50.390Z,715.7692
2024-03-30T01:24:51.928Z,716.6923
2024-03-30T01:25:53.518Z,716.8461
2024-03-30T01:26:54.976Z,714.7692
2024-03-30T01:27:56.510Z,714.0769
2024-03-30T01:28:58.051Z,715.6923
2024-03-30T01:29:59.561Z,715.6154
2024-03-30T01:31:01.125Z,714.7692
2024-03-30T01:32:02.653Z,712.9231
2024-03-30T01:33:04.161Z,712.5385
2024-03-30T01:34:05.681Z,716.3846
2024-03-30T01:35:07.213Z,717.6923
2024-03-30T01:36:08.751Z,722.1539
2024-03-30T01:37:10.364Z,720.2308
2024-03-30T01:38:11.822Z,717.1539
2024-03-30T01:39:13.317Z,714.0769
2024-03-30T01:40:14.877Z,705.8461
2024-03-30T01:41:16.396Z,706.3846
2024-03-30T01:42:17.927Z,709.6154
2024-03-30T01:43:19.438Z,711.3846
2024-03-30T01:44:21.039Z,713.9231
2024-03-30T01:45:22.525Z,714.3846
2024-03-30T01:46:24.033Z,712.9231
2024-03-30T01:47:25.594Z,719.9231
2024-03-30T01:48:27.093Z,722.9231
2024-03-30T01:49:28.623Z,719.9231
2024-03-30T01:50:30.159Z,715.5385
2024-03-30T01:51:31.698Z,713.3846
2024-03-30T01:52:33.320Z,713.6154
2024-03-30T01:53:44.037Z,714.8461
2024-03-30T01:54:36.290Z,716.3846
2024-03-30T01:55:37.855Z,718.0769
2024-03-30T01:56:39.328Z,717.9231
2024-03-30T01:57:40.874Z,720.4615
2024-03-30T01:58:42.414Z,718.1539
2024-03-30T01:59:43.943Z,717.7692
2024-03-30T02:00:45.446Z,716.3077
2024-03-30T02:01:47.091Z,713.0769
2024-03-30T02:02:48.528Z,710.7692
2024-03-30T02:03:50.027Z,709.3846
2024-03-30T02:04:51.580Z,708.4615
2024-03-30T02:05:53.096Z,712.3077
2024-03-30T02:06:54.644Z,712.7692
2024-03-30T02:07:56.223Z,709.9231
2024-03-30T02:08:57.693Z,712.0000
2024-03-30T02:09:59.220Z,712.4615
2024-03-30T02:11:00.737Z,714.4615
2024-03-30T02:12:02.274Z,713.0769
2024-03-30T02:13:03.816Z,709.0000
2024-03-30T02:14:05.333Z,707.0000
2024-03-30T02:15:06.851Z,708.3846
2024-03-30T02:16:08.447Z,711.7692
2024-03-30T02:17:09.937Z,712.9231
2024-03-30T02:18:11.457Z,713.5385
2024-03-30T02:19:12.974Z,712.6154
2024-03-30T02:20:14.502Z,711.0000
2024-03-30T02:21:16.064Z,710.8461
2024-03-30T02:22:17.622Z,710.0769
2024-03-30T02:23:19.106Z,713.2308
2024-03-30T02:24:20.608Z,714.6923
2024-03-30T02:25:22.239Z,713.0000
2024-03-30T02:26:23.667Z,711.7692
2024-03-30T02:27:25.250Z,712.7692
2024-03-30T02:28:26.728Z,714.0000
2024-03-30T02:29:28.360Z,713.1539
2024-03-30T02:30:29.802Z,712.8461
2024-03-30T02:31:31.308Z,705.4615
2024-03-30T02:32:32.856Z,704.6154
2024-03-30T02:33:34.386Z,709.8461
2024-03-30T02:34:35.904Z,711.6154
2024-03-30T02:35:37.452Z,711.6923
2024-03-30T02:36:38.976Z,711.6923
2024-03-30T02:37:40.500Z,709.3077
2024-03-30T02:38:42.134Z,711.3846
2024-03-30T02:39:43.553Z,712.3077
2024-03-30T02:40:45.094Z,711.4615
2024-03-30T02:41:46.625Z,711.8461
2024-03-30T02:42:48.136Z,712.0000
2024-03-30T02:43:49.679Z,714.3077
2024-03-30T02:44:51.205Z,715.7692
2024-03-30T02:45:52.738Z,713.6154
2024-03-30T02:46:54.286Z,711.3077
2024-03-30T02:47:55.802Z,708.7692
2024-03-30T02:48:57.326Z,709.2308
2024-03-30T02:49:58.942Z,713.8461
2024-03-30T02:51:00.390Z,713.3077
2024-03-30T02:52:01.911Z,713.0769
2024-03-30T02:53:03.531Z,712.2308
2024-03-30T02:54:04.987Z,708.3846
2024-03-30T02:55:06.499Z,714.5385
2024-03-30T02:56:08.024Z,715.7692
2024-03-30T02:57:09.553Z,712.3846
2024-03-30T02:58:11.074Z,713.6923
2024-03-30T02:59:12.737Z,715.1539
2024-03-30T03:00:14.164Z,712.0000
2024-03-30T03:01:15.691Z,709.0769
2024-03-30T03:02:17.199Z,710.6923
2024-03-30T03:03:18.724Z,715.7692
2024-03-30T03:04:20.261Z,716.5385
2024-03-30T03:05:21.792Z,716.6923
2024-03-30T03:06:23.322Z,715.1539
2024-03-30T03:07:24.841Z,714.8461
2024-03-30T03:08:26.391Z,717.5385
2024-03-30T03:09:27.909Z,712.8461
2024-03-30T03:10:29.516Z,710.0769
2024-03-30T03:11:30.969Z,713.9231
2024-03-30T03:12:32.511Z,713.1539
2024-03-30T03:13:34.032Z,714.1539
2024-03-30T03:14:35.654Z,707.9231
2024-03-30T03:15:37.185Z,710.6923
2024-03-30T03:16:38.643Z,713.7692
2024-03-30T03:17:40.174Z,711.7692
2024-03-30T03:18:41.678Z,717.0769
2024-03-30T03:19:43.219Z,721.2308
2024-03-30T03:20:44.826Z,718.1539
2024-03-30T03:21:46.269Z,715.1539
2024-03-30T03:22:47.810Z,719.0000
2024-03-30T03:23:49.324Z,716.3846
2024-03-30T03:24:50.882Z,714.3077
2024-03-30T03:25:52.460Z,715.0769
2024-03-30T03:26:53.932Z,715.0000
2024-03-30T03:27:55.466Z,713.4615
2024-03-30T03:28:57.077Z,712.0769
2024-03-30T03:29:58.515Z,710.8461
2024-03-30T03:31:00.118Z,712.5385
2024-03-30T03:32:01.672Z,716.9231
2024-03-30T03:33:03.245Z,715.4615
2024-03-30T03:34:04.690Z,711.3846
2024-03-30T03:35:06.236Z,711.6154
2024-03-30T03:36:07.728Z,713.3846
2024-03-30T03:37:09.350Z,713.3077
2024-03-30T03:38:10.802Z,711.3846
2024-03-30T03:39:12.350Z,710.7692
2024-03-30T03:40:13.862Z,711.6923
2024-03-30T03:41:15.392Z,712.3846
2024-03-30T03:42:16.916Z,713.2308
2024-03-30T03:43:18.446Z,713.2308
2024-03-30T03:44:19.976Z,714.4615
2024-03-30T03:45:21.520Z,712.0769
2024-03-30T03:46:23.021Z,711.2308
2024-03-30T03:47:24.638Z,707.8461
2024-03-30T03:48:26.112Z,713.3846
2024-03-30T03:49:27.618Z,713.7692
2024-03-30T03:50:29.221Z,713.6923
2024-03-30T03:51:30.658Z,713.0000
2024-03-30T03:52:32.213Z,714.8461
2024-03-30T03:53:33.728Z,719.3077
2024-03-30T03:54:35.347Z,715.3077
2024-03-30T03:55:36.778Z,716.1539
2024-03-30T03:56:38.334Z,715.6154
2024-03-30T03:57:39.859Z,715.8461
2024-03-30T03:58:41.386Z,715.9231
2024-03-30T03:59:42.922Z,716.1539
2024-03-30T04:00:44.501Z,716.9231
2024-03-30T04:01:45.974Z,715.5385
2024-03-30T04:02:47.542Z,715.6923
2024-03-30T04:03:49.025Z,716.1539
2024-03-30T04:04:50.543Z,713.0769
2024-03-30T04:05:52.105Z,711.3077
2024-03-30T04:06:53.635Z,710.8461
2024-03-30T04:07:55.129Z,713.4615
2024-03-30T04:08:56.798Z,714.4615
2024-03-30T04:09:58.188Z,715.7692
2024-03-30T04:10:59.716Z,713.1539
2024-03-30T04:12:01.334Z,713.0000
2024-03-30T04:13:02.776Z,712.8461
2024-03-30T04:14:04.335Z,711.0769
2024-03-30T04:15:05.852Z,710.7692
2024-03-30T04:16:07.376Z,711.7692
2024-03-30T04:17:09.001Z,711.1539
2024-03-30T04:18:10.428Z,712.7692
2024-03-30T04:19:11.980Z,711.0000
2024-03-30T04:20:13.508Z,711.2308
2024-03-30T04:21:15.044Z,711.4615
2024-03-30T04:22:16.585Z,710.7692
2024-03-30T04:23:18.114Z,715.0769
2024-03-30T04:24:19.703Z,718.1539
2024-03-30T04:25:21.170Z,719.3846
2024-03-30T04:26:22.702Z,718.1539
2024-03-30T04:27:24.242Z,716.4615
2024-03-30T04:28:25.782Z,714.4615
2024-03-30T04:29:27.282Z,713.8461
2024-03-30T04:30:28.827Z,713.3846
2024-03-30T04:31:30.450Z,711.6154
2024-03-30T04:32:31.885Z,710.6923
2024-03-30T04:33:33.406Z,711.0769
2024-03-30T04:34:34.940Z,709.0769
2024-03-30T04:35:36.484Z,710.5385
2024-03-30T04:36:37.988Z,708.0000
2024-03-30T04:37:39.525Z,709.5385
2024-03-30T04:38:41.052Z,711.9231
2024-03-30T04:39:42.640Z,714.2308
2024-03-30T04:40:44.133Z,715.7692
2024-03-30T04:41:45.642Z,712.6923
2024-03-30T04:42:47.161Z,707.9231
2024-03-30T04:43:48.692Z,714.5385
2024-03-30T04:44:50.232Z,715.8461
2024-03-30T04:45:51.834Z,713.9231
2024-03-30T04:46:53.280Z,715.2308
2024-03-30T04:47:54.817Z,718.4615
2024-03-30T04:48:56.411Z,717.0000
2024-03-30T04:49:57.886Z,714.8461
2024-03-30T04:50:59.440Z,717.0000
2024-03-30T04:52:00.945Z,725.3846
2024-03-30T04:53:02.480Z,716.9231
2024-03-30T04:54:04.011Z,707.3846
2024-03-30T04:55:05.543Z,708.0000
2024-03-30T04:56:07.134Z,708.7692
2024-03-30T04:57:08.619Z,710.3077
2024-03-30T04:58:10.137Z,711.6154
2024-03-30T04:59:11.672Z,714.2308
2024-03-30T05:00:13.184Z,713.8461
2024-03-30T05:01:14.714Z,714.3846
2024-03-30T05:02:16.251Z,718.7692
2024-03-30T05:03:17.785Z,720.7692
2024-03-30T05:04:19.327Z,721.1539
2024-03-30T05:05:20.832Z,719.7692
2024-03-30T05:06:22.376Z,721.2308
2024-03-30T05:07:23.909Z,721.8461
2024-03-30T05:08:25.435Z,720.4615
2024-03-30T05:09:26.972Z,716.0000
2024-03-30T05:10:28.569Z,716.4615
2024-03-30T05:11:30.016Z,715.8461
2024-03-30T05:12:31.531Z,716.5385
2024-03-30T05:13:33.065Z,723.2308
2024-03-30T05:14:34.622Z,721.0769
2024-03-30T05:15:36.193Z,715.2308
2024-03-30T05:16:40.435Z,714.5385
2024-03-30T05:17:39.215Z,713.0000
2024-03-30T05:18:40.729Z,714.4615
2024-03-30T05:19:42.242Z,717.3077
2024-03-30T05:20:43.845Z,719.3077
2024-03-30T05:21:45.290Z,718.9231
2024-03-30T05:22:46.845Z,717.0769
2024-03-30T05:23:48.351Z,713.8461
2024-03-30T05:24:49.904Z,709.8461
2024-03-30T05:25:51.411Z,708.5385
2024-03-30T05:26:52.948Z,710.6154
2024-03-30T05:27:54.532Z,709.7692
2024-03-30T05:28:56.033Z,709.6923
2024-03-30T05:29:57.523Z,712.6154
2024-03-30T05:30:59.070Z,717.2308
2024-03-30T05:32:00.583Z,719.3846
2024-03-30T05:33:02.152Z,719.0000
2024-03-30T05:34:03.644Z,720.4615
2024-03-30T05:35:05.174Z,718.6923
2024-03-30T05:36:06.783Z,716.6923
2024-03-30T05:37:08.240Z,716.5385
2024-03-30T05:38:09.767Z,715.4615
2024-03-30T05:39:11.372Z,714.6154
2024-03-30T05:40:12.818Z,714.4615
2024-03-30T05:41:14.365Z,719.0000
2024-03-30T05:42:15.865Z,717.6923
2024-03-30T05:43:17.417Z,715.2308
2024-03-30T05:44:18.999Z,714.6923
2024-03-30T05:45:20.479Z,716.0000
2024-03-30T05:46:21.993Z,714.0769
2024-03-30T05:47:23.547Z,713.3077
2024-03-30T05:48:25.068Z,715.3077
2024-03-30T05:49:26.691Z,717.3846
2024-03-30T05:50:28.162Z,717.3846
2024-03-30T05:51:29.651Z,716.6154
2024-03-30T05:52:31.223Z,715.4615
2024-03-30T05:53:32.780Z,715.0769
2024-03-30T05:54:34.254Z,716.7692
2024-03-30T05:55:35.774Z,716.5385
2024-03-30T05:56:37.329Z,717.3846
2024-03-30T05:57:38.841Z,717.6923
2024-03-30T05:58:40.378Z,718.6923
2024-03-30T05:59:41.919Z,719.5385
2024-03-30T06:00:43.423Z,716.9231
2024-03-30T06:01:45.013Z,719.6923
2024-03-30T06:02:46.597Z,720.9231
2024-03-30T06:03:48.032Z,726.2308
2024-03-30T06:04:49.544Z,723.0000
2024-03-30T06:05:51.087Z,721.1539
2024-03-30T06:06:52.612Z,719.2308
2024-03-30T06:07:54.157Z,717.6154
2024-03-30T06:08:55.682Z,718.8461
2024-03-30T06:09:57.218Z,719.0000
2024-03-30T06:10:58.833Z,718.3846
2024-03-30T06:12:00.292Z,717.3846
2024-03-30T06:13:01.782Z,716.4615
2024-03-30T06:14:03.319Z,714.5385
2024-03-30T06:15:04.841Z,713.9231
2024-03-30T06:16:06.374Z,711.0000
2024-03-30T06:17:07.985Z,713.0769
2024-03-30T06:18:09.449Z,714.6923
2024-03-30T06:19:10.952Z,719.6923
2024-03-30T06:20:12.484Z,719.0769
2024-03-30T06:21:14.000Z,717.2308
2024-03-30T06:22:15.537Z,717.8461
2024-03-30T06:23:17.056Z,720.6154
2024-03-30T06:24:18.680Z,720.6154
2024-03-30T06:25:20.111Z,716.0000
2024-03-30T06:26:21.680Z,716.0000
2024-03-30T06:27:23.194Z,716.3077
2024-03-30T06:28:24.690Z,716.3846
2024-03-30T06:29:27.442Z,720.1539
2024-03-30T06:30:27.886Z,721.2308
2024-03-30T06:31:29.285Z,721.3846
2024-03-30T06:32:30.808Z,718.8461
2024-03-30T06:33:32.332Z,715.5385
2024-03-30T06:34:33.861Z,714.3846
2024-03-30T06:35:35.474Z,711.8461
2024-03-30T06:36:36.930Z,713.3846
2024-03-30T06:37:38.446Z,712.3077
2024-03-30T06:38:39.987Z,712.4615
2024-03-30T06:39:41.499Z,715.5385
2024-03-30T06:40:43.052Z,716.6154
2024-03-30T06:41:44.570Z,714.7692
2024-03-30T06:42:46.109Z,711.8461
2024-03-30T06:43:51.404Z,707.7692
2024-03-30T06:44:49.218Z,707.8461
2024-03-30T06:45:50.703Z,712.3846
2024-03-30T06:46:52.196Z,714.0769
2024-03-30T06:47:53.732Z,713.6154
2024-03-30T06:48:55.283Z,715.0000
2024-03-30T06:49:56.778Z,715.7692
2024-03-30T06:50:58.343Z,714.5385
2024-03-30T06:51:59.846Z,713.3077
2024-03-30T06:53:01.374Z,713.6154
2024-03-30T06:54:02.948Z,713.9231
2024-03-30T06:55:04.404Z,716.3077
2024-03-30T06:56:06.020Z,713.7692
2024-03-30T06:57:07.490Z,717.9231
2024-03-30T06:58:08.996Z,719.6154
2024-03-30T06:59:10.520Z,717.4615
2024-03-30T07:00:12.066Z,716.3077
2024-03-30T07:01:13.682Z,718.9231
2024-03-30T07:02:15.116Z,720.7692
2024-03-30T07:03:16.642Z,718.8461
2024-03-30T07:04:18.153Z,718.3077
2024-03-30T07:05:19.688Z,719.0769
2024-03-30T07:06:21.214Z,716.2308
2024-03-30T07:07:22.742Z,717.3846
2024-03-30T07:08:24.375Z,718.6923
2024-03-30T07:09:25.807Z,716.7692
2024-03-30T07:10:27.326Z,717.6154
2024-03-30T07:11:28.852Z,718.2308
2024-03-30T07:12:32.750Z,720.3846
2024-03-30T07:13:31.895Z,719.6154
2024-03-30T07:14:33.517Z,716.3077
2024-03-30T07:15:34.975Z,718.4615
2024-03-30T07:16:36.567Z,714.7692
2024-03-30T07:17:38.038Z,712.1539
2024-03-30T07:18:39.542Z,712.3846
2024-03-30T07:19:41.095Z,712.3846
2024-03-30T07:20:42.609Z,711.1539
2024-03-30T07:21:44.105Z,709.7692
2024-03-30T07:22:45.732Z,711.0000
2024-03-30T07:23:47.180Z,716.0000
2024-03-30T07:24:48.702Z,719.4615
2024-03-30T07:25:50.240Z,718.6923
2024-03-30T07:26:51.751Z,720.3077
2024-03-30T07:27:53.268Z,715.1539
2024-03-30T07:28:54.924Z,714.3077
2024-03-30T07:29:56.351Z,712.9231
2024-03-30T07:30:57.867Z,713.6154
2024-03-30T07:31:59.395Z,713.5385
2024-03-30T07:33:01.020Z,713.5385
2024-03-30T07:34:02.527Z,711.5385
2024-03-30T07:35:04.089Z,713.4615
2024-03-30T07:36:05.622Z,713.1539
2024-03-30T07:37:07.220Z,715.0000
2024-03-30T07:38:08.629Z,718.0000
2024-03-30T07:39:10.175Z,717.9231
2024-03-30T07:40:11.713Z,717.3077
2024-03-30T07:41:13.233Z,714.7692
2024-03-30T07:42:14.772Z,714.8461
2024-03-30T07:43:16.286Z,717.0769
2024-03-30T07:44:17.829Z,718.2308
2024-03-30T07:45:19.338Z,717.0000
2024-03-30T07:46:20.943Z,714.6154
2024-03-30T07:47:22.375Z,716.1539
2024-03-30T07:48:23.918Z,715.6154
2024-03-30T07:49:25.434Z,714.4615
2024-03-30T07:50:27.015Z,710.1539
2024-03-30T07:51:28.503Z,710.6154
2024-03-30T07:52:30.036Z,711.3077
2024-03-30T07:53:31.589Z,713.3077
2024-03-30T07:54:33.166Z,717.0769
2024-03-30T07:55:34.651Z,717.3846
2024-03-30T07:56:36.159Z,715.6154
2024-03-30T07:57:37.727Z,718.3846
2024-03-30T07:58:39.203Z,719.5385
2024-03-30T07:59:40.733Z,718.8461
2024-03-30T08:00:42.289Z,717.2308
2024-03-30T08:01:43.804Z,715.0769
2024-03-30T08:02:45.349Z,717.5385
2024-03-30T08:03:46.877Z,716.7692
2024-03-30T08:04:48.400Z,712.6923
2024-03-30T08:05:50.010Z,714.0769
2024-03-30T08:06:51.476Z,714.6923
2024-03-30T08:07:53.113Z,712.3846
2024-03-30T08:08:54.533Z,710.6154
2024-03-30T08:09:56.061Z,710.6923
2024-03-30T08:10:57.599Z,710.3077
2024-03-30T08:11:59.148Z,708.8461
2024-03-30T08:13:00.680Z,709.0769
2024-03-30T08:14:02.210Z,709.2308
2024-03-30T08:15:03.735Z,711.6923
2024-03-30T08:16:05.263Z,710.1539
2024-03-30T08:17:06.802Z,707.6154
2024-03-30T08:18:08.319Z,708.6154
2024-03-30T08:19:09.837Z,710.0769
2024-03-30T08:20:11.389Z,712.8461
2024-03-30T08:21:12.913Z,709.7692
2024-03-30T08:22:14.430Z,713.0769
2024-03-30T08:23:16.057Z,713.6154
2024-03-30T08:24:17.498Z,713.6923
2024-03-30T08:25:19.033Z,713.1539
2024-03-30T08:26:20.607Z,714.5385
2024-03-30T08:27:24.131Z,715.7692
2024-03-30T08:28:23.609Z,718.9231
2024-03-30T08:29:25.152Z,716.3846
2024-03-30T08:30:26.753Z,714.0769
2024-03-30T08:31:28.211Z,712.2308
2024-03-30T08:32:29.743Z,713.8461
2024-03-30T08:33:31.276Z,709.7692
2024-03-30T08:34:32.814Z,709.9231
2024-03-30T08:35:34.452Z,709.3846
2024-03-30T08:36:35.889Z,712.0769
2024-03-30T08:37:37.412Z,713.7692
2024-03-30T08:38:38.934Z,713.3077
2024-03-30T08:39:40.539Z,714.6923
2024-03-30T08:40:41.999Z,709.4615
2024-03-30T08:41:43.559Z,713.1539
2024-03-30T08:42:45.062Z,713.5385
2024-03-30T08:43:46.631Z,711.3077
2024-03-30T08:44:48.165Z,711.1539
2024-03-30T08:45:49.644Z,713.3846
2024-03-30T08:46:51.202Z,713.6923
2024-03-30T08:47:52.705Z,710.9231
2024-03-30T08:48:54.267Z,708.3077
2024-03-30T08:49:55.853Z,706.3077
2024-03-30T08:50:57.311Z,705.9231
2024-03-30T08:51:58.850Z,712.3846
2024-03-30T08:53:00.448Z,719.0769
2024-03-30T08:54:01.928Z,717.3077
2024-03-30T08:55:03.426Z,714.3846
2024-03-30T08:56:04.961Z,712.3077
2024-03-30T08:57:06.535Z,710.6923
2024-03-30T08:58:08.007Z,712.0769
2024-03-30T08:59:09.551Z,709.2308
2024-03-30T09:00:11.150Z,706.0000
2024-03-30T09:01:12.642Z,704.8461
2024-03-30T09:02:14.137Z,702.4615
2024-03-30T09:03:15.664Z,705.1539
2024-03-30T09:04:17.263Z,707.3077
2024-03-30T09:05:18.725Z,709.3846
2024-03-30T09:06:20.250Z,711.0769
2024-03-30T09:07:21.833Z,709.6154
2024-03-30T09:08:23.326Z,709.2308
2024-03-30T09:09:24.858Z,706.7692
2024-03-30T09:10:26.385Z,707.6923
2024-03-30T09:11:27.979Z,708.3077
2024-03-30T09:12:29.434Z,710.5385
2024-03-30T09:13:30.988Z,708.9231
2024-03-30T09:14:32.565Z,706.3846
2024-03-30T09:15:34.019Z,711.3846
2024-03-30T09:16:35.542Z,712.6154
2024-03-30T09:17:37.077Z,712.5385
2024-03-30T09:18:38.614Z,709.8461
2024-03-30T09:19:40.130Z,705.9231
2024-03-30T09:20:41.665Z,705.7692
2024-03-30T09:21:43.197Z,706.0000
2024-03-30T09:22:44.737Z,706.8461
2024-03-30T09:23:46.316Z,709.0000
2024-03-30T09:24:47.816Z,710.7692
2024-03-30T09:25:49.309Z,708.0769
2024-03-30T09:26:50.847Z,708.6923
2024-03-30T09:27:52.356Z,707.5385
2024-03-30T09:28:53.894Z,710.3077
2024-03-30T09:29:55.440Z,713.0000
2024-03-30T09:30:56.950Z,710.6154
2024-03-30T09:31:58.478Z,708.8461
2024-03-30T09:33:00.087Z,709.0000
2024-03-30T09:34:01.549Z,707.7692
2024-03-30T09:35:03.143Z,711.4615
2024-03-30T09:36:04.606Z,709.3846
2024-03-30T09:37:06.140Z,709.3846
2024-03-30T09:38:07.683Z,708.5385
2024-03-30T09:39:09.232Z,709.2308
2024-03-30T09:40:10.724Z,709.3846
2024-03-30T09:41:12.248Z,706.6154
2024-03-30T09:42:13.801Z,708.6154
2024-03-30T09:43:15.427Z,707.6923
2024-03-30T09:44:16.880Z,708.2308
2024-03-30T09:45:18.390Z,705.3846
2024-03-30T09:46:19.944Z,706.9231
2024-03-30T09:47:21.433Z,707.2308
2024-03-30T09:48:22.963Z,706.6154
2024-03-30T09:49:24.569Z,703.6923
2024-03-30T09:50:26.020Z,703.6923
2024-03-30T09:51:27.544Z,706.9231
2024-03-30T09:52:29.085Z,706.5385
2024-03-30T09:53:30.624Z,705.0000
2024-03-30T09:54:32.146Z,703.9231
2024-03-30T09:55:33.737Z,705.8461
2024-03-30T09:56:35.214Z,706.7692
2024-03-30T09:57:37.375Z,706.7692
2024-03-30T09:58:38.253Z,706.0769
2024-03-30T09:59:39.884Z,708.0769
2024-03-30T10:00:41.367Z,708.8461
2024-03-30T10:01:42.830Z,708.3846
2024-03-30T10:02:44.473Z,709.1539
2024-03-30T10:03:45.995Z,707.7692
2024-03-30T10:04:47.419Z,707.3077
2024-03-30T10:05:48.961Z,706.0000
2024-03-30T10:06:50.510Z,705.0000
2024-03-30T10:07:52.047Z,705.2308
2024-03-30T10:08:53.636Z,704.4615
2024-03-30T10:09:55.091Z,706.6154
2024-03-30T10:10:56.605Z,706.9231
2024-03-30T10:11:58.128Z,706.0769
2024-03-30T10:12:59.664Z,705.7692
2024-03-30T10:14:07.355Z,707.5385
2024-03-30T10:15:02.717Z,707.2308
2024-03-30T10:16:04.379Z,706.2308
2024-03-30T10:17:05.786Z,705.5385
2024-03-30T10:18:07.324Z,703.2308
2024-03-30T10:19:08.848Z,703.8461
2024-03-30T10:20:10.370Z,706.0769
2024-03-30T10:21:11.899Z,702.6154
2024-03-30T10:22:13.425Z,706.0769
2024-03-30T10:23:14.955Z,705.8461
2024-03-30T10:24:16.549Z,707.0769
2024-03-30T10:25:18.003Z,707.7692
2024-03-30T10:26:19.537Z,705.9231
2024-03-30T10:27:21.064Z,703.8461
2024-03-30T10:28:22.619Z,701.2308
2024-03-30T10:29:24.134Z,703.7692
2024-03-30T10:30:25.649Z,703.8461
2024-03-30T10:31:27.196Z,703.1539
2024-03-30T10:32:28.865Z,704.0000
2024-03-30T10:33:30.263Z,702.0769
2024-03-30T10:34:31.781Z,701.5385
2024-03-30T10:35:33.435Z,701.3846
2024-03-30T10:36:34.838Z,706.7692
2024-03-30T10:37:36.395Z,708.3846
2024-03-30T10:38:37.896Z,705.8461
2024-03-30T10:39:39.447Z,703.1539
2024-03-30T10:40:40.982Z,705.0000
2024-03-30T10:41:42.575Z,706.1539
2024-03-30T10:42:44.047Z,705.4615
2024-03-30T10:43:45.554Z,702.5385
2024-03-30T10:44:47.118Z,702.6923
2024-03-30T10:45:48.627Z,701.6154
2024-03-30T10:46:50.177Z,698.9231
2024-03-30T10:47:51.679Z,699.8461
2024-03-30T10:48:53.213Z,698.7692
2024-03-30T10:49:54.752Z,698.6154
2024-03-30T10:50:56.284Z,699.7692
2024-03-30T10:51:57.816Z,698.2308
2024-03-30T10:52:59.347Z,697.2308
2024-03-30T10:54:00.880Z,700.3846
2024-03-30T10:55:02.480Z,702.4615
2024-03-30T10:56:03.969Z,703.6923
2024-03-30T10:57:05.460Z,701.2308
2024-03-30T10:58:06.987Z,701.0000
2024-03-30T10:59:08.532Z,704.6923
2024-03-30T11:00:10.047Z,706.6923
2024-03-30T11:01:11.577Z,705.7692
2024-03-30T11:02:13.152Z,702.0769
2024-03-30T11:03:14.694Z,709.8461
2024-03-30T11:04:16.163Z,708.3846
2024-03-30T11:05:17.716Z,702.6154
2024-03-30T11:06:19.227Z,701.6154
2024-03-30T11:07:20.773Z,703.1539
2024-03-30T11:08:22.296Z,701.4615
2024-03-30T11:09:23.805Z,707.6923
2024-03-30T11:10:25.354Z,708.9231
2024-03-30T11:11:26.896Z,708.3846
2024-03-30T11:12:28.402Z,708.9231
2024-03-30T11:13:29.909Z,708.6154
2024-03-30T11:14:31.451Z,711.7692
2024-03-30T11:15:33.048Z,713.1539
2024-03-30T11:16:34.499Z,707.1539
2024-03-30T11:17:36.024Z,704.5385
2024-03-30T11:18:37.576Z,703.7692
2024-03-30T11:19:39.077Z,705.0769
2024-03-30T11:20:40.605Z,705.5385
2024-03-30T11:21:42.159Z,703.9231
2024-03-30T11:22:43.648Z,704.1539
2024-03-30T11:23:45.265Z,705.2308
2024-03-30T11:24:46.751Z,705.5385
2024-03-30T11:25:48.241Z,703.9231
2024-03-30T11:26:49.783Z,704.1539
2024-03-30T11:27:51.319Z,705.6923
2024-03-30T11:28:52.832Z,705.3077
2024-03-30T11:29:54.358Z,706.0769
2024-03-30T11:30:55.894Z,707.6923
2024-03-30T11:31:57.498Z,707.3077
2024-03-30T11:32:58.947Z,705.7692
2024-03-30T11:34:00.476Z,706.0000
2024-03-30T11:35:03.472Z,707.8461
2024-03-30T11:36:03.589Z,706.0769
2024-03-30T11:37:05.129Z,702.5385
2024-03-30T11:38:06.639Z,702.9231
2024-03-30T11:39:08.284Z,702.6154
2024-03-30T11:40:09.711Z,703.8461
2024-03-30T11:41:11.247Z,707.5385
2024-03-30T11:42:12.778Z,707.0769
2024-03-30T11:43:14.296Z,705.1539
2024-03-30T11:44:15.816Z,706.2308
2024-03-30T11:45:17.342Z,708.6923
2024-03-30T11:46:18.969Z,708.3846
2024-03-30T11:47:20.420Z,704.3846
2024-03-30T11:48:21.948Z,702.0769
2024-03-30T11:49:23.509Z,705.8461
2024-03-30T11:50:25.005Z,707.6923
2024-03-30T11:51:26.540Z,708.3077
2024-03-30T11:52:28.038Z,707.1539
2024-03-30T11:53:29.600Z,707.6923
2024-03-30T11:54:31.120Z,710.4615
2024-03-30T11:55:32.658Z,712.3077
2024-03-30T11:56:34.186Z,710.6923
2024-03-30T11:57:35.765Z,707.6154
2024-03-30T11:58:38.872Z,704.5385
2024-03-30T11:59:38.787Z,704.7692
2024-03-30T12:00:40.302Z,705.5385
2024-03-30T12:01:41.843Z,705.4615
2024-03-30T12:02:43.353Z,704.0769